Weather reports worldwide

Advertisment
Blackpool/Squires Gate, United Kingdom (3318): temperature & dewpoint: 19.04.2019 13:00:00 - 25.04.2019 13:00:00 (BST)Blackpool/Squires Gate, United Kingdom (3318): wind speed & gusts: 19.04.2019 13:00:00 - 25.04.2019 13:00:00 (BST)Blackpool/Squires Gate, United Kingdom (3318): wind direction: 19.04.2019 13:00:00 - 25.04.2019 13:00:00 (BST)Blackpool/Squires Gate, United Kingdom (3318): precipitation: 19.04.2019 13:00:00 - 25.04.2019 13:00:00 (BST)
Date & Time tt [°C] td [°C] ff [km/h] ff [kn] fx [km/h] fx [kn] dd rr [mm]
25.04.2019 13:00:00 14,8 5,8 29 16 - - SE 0,0
25.04.2019 12:00:00 15,3 8,8 31 17 48 26 SE 0,0
25.04.2019 11:00:00 12,8 7,8 28 15 - - ESE 0,0
25.04.2019 10:00:00 11,6 8,3 26 14 - - ESE 0,0
25.04.2019 09:00:00 10,0 7,4 28 15 - - ESE 0,0
25.04.2019 08:00:00 10,3 7,2 21 11 - - E 0,0
25.04.2019 07:00:00 8,9 6,7 13 7 - - ENE 0,0
25.04.2019 06:00:00 7,2 5,6 13 7 - - E 0,0
25.04.2019 05:00:00 8,3 6,7 13 7 - - ESE 0,0
25.04.2019 04:00:00 7,9 6,4 15 8 - - E 0,0
25.04.2019 03:00:00 7,1 5,8 15 8 - - ESE 0,0
25.04.2019 02:00:00 8,9 7,2 18 10 - - SE 0,0
25.04.2019 01:00:00 9,8 7,9 21 11 - - SE 0,0
25.04.2019 00:00:00 9,6 7,8 18 10 - - SSE 0,0
24.04.2019 23:00:00 9,9 8,2 18 10 - - SSE 0,0
24.04.2019 22:00:00 10,2 8,1 22 12 - - S 0,0
24.04.2019 21:00:00 10,3 9,5 15 8 - - S 0,6
24.04.2019 20:00:00 9,8 9,0 22 12 - - SW 0,0
24.04.2019 19:00:00 9,8 8,9 35 19 48 26 WSW 2,8
24.04.2019 18:00:00 17,1 11,0 11 6 - - ENE 0,0
24.04.2019 17:00:00 16,9 10,6 21 11 - - E 0,0
24.04.2019 16:00:00 17,2 11,1 24 13 - - ESE 0,0
24.04.2019 15:00:00 19,7 9,9 22 12 - - ESE 0,0
24.04.2019 14:00:00 18,8 9,4 28 15 - - ESE 0,0
24.04.2019 13:00:00 18,2 8,9 26 14 - - SE 0,0
24.04.2019 12:00:00 16,6 9,7 24 13 - - E 0,0
24.04.2019 11:00:00 14,4 8,5 26 14 - - E -
24.04.2019 10:00:00 12,7 7,9 24 13 - - E 0,0
24.04.2019 09:00:00 10,9 7,2 22 12 - - E 0,0
24.04.2019 08:00:00 9,8 6,7 21 11 - - E 0,0
24.04.2019 07:00:00 8,5 6,0 16 9 - - E 0,0
24.04.2019 06:00:00 8,1 5,5 15 8 - - E 0,0
24.04.2019 05:00:00 8,3 5,6 13 7 - - E 0,0
24.04.2019 04:00:00 8,3 5,8 16 9 - - E 0,0
24.04.2019 03:00:00 7,3 5,2 11 6 - - E 0,0
24.04.2019 02:00:00 8,9 6,2 16 9 - - E 0,0
24.04.2019 01:00:00 9,2 6,2 9 5 - - E 0,0
24.04.2019 00:00:00 10,2 6,5 21 11 - - E 0,0
23.04.2019 23:00:00 10,8 5,9 21 11 - - E 0,0
23.04.2019 22:00:00 12,7 5,4 26 14 - - E 0,0
23.04.2019 21:00:00 14,0 6,0 26 14 - - E 0,0
23.04.2019 20:00:00 15,6 6,8 24 13 - - E 0,0
23.04.2019 19:00:00 16,6 7,1 26 14 - - E 0,0
23.04.2019 18:00:00 18,1 7,8 26 14 - - E 0,0
23.04.2019 17:00:00 18,5 7,8 28 15 - - E 0,0
23.04.2019 16:00:00 19,1 7,4 31 17 - - E 0,0
23.04.2019 15:00:00 18,9 8,6 29 16 50 27 E 0,0
23.04.2019 14:00:00 18,9 7,9 37 20 52 28 E 0,0
23.04.2019 13:00:00 18,3 7,6 35 19 48 26 E 0,0
23.04.2019 12:00:00 17,6 8,3 28 15 - - E 0,0
23.04.2019 11:00:00 15,7 8,2 28 15 - - E 0,0
23.04.2019 10:00:00 14,2 7,7 22 12 - - ENE 0,0
23.04.2019 09:00:00 13,5 7,4 16 9 - - ENE 0,0
23.04.2019 08:00:00 12,5 6,7 15 8 - - ENE 0,0
23.04.2019 07:00:00 11,7 6,5 13 7 - - E 0,0
23.04.2019 06:00:00 10,3 6,0 16 9 - - E 0,0
23.04.2019 05:00:00 11,0 6,1 16 9 - - E 0,0
23.04.2019 04:00:00 11,3 6,2 15 8 - - E 0,0
23.04.2019 03:00:00 12,1 6,0 16 9 - - E 0,0
23.04.2019 02:00:00 14,2 6,2 15 8 - - E 0,0
23.04.2019 01:00:00 15,0 6,0 16 9 - - E 0,0
23.04.2019 00:00:00 15,2 6,2 18 10 - - E 0,0
22.04.2019 23:00:00 15,7 5,9 22 12 - - E 0,0
22.04.2019 22:00:00 16,2 5,3 22 12 - - E 0,0
22.04.2019 21:00:00 17,4 6,3 16 9 - - ENE 0,0
22.04.2019 20:00:00 18,6 6,3 16 9 - - E 0,0
22.04.2019 19:00:00 20,2 7,9 16 9 - - E 0,0
22.04.2019 18:00:00 21,2 7,5 24 13 - - E 0,0
22.04.2019 17:00:00 22,3 6,3 18 10 - - ESE 0,0
22.04.2019 16:00:00 22,2 4,1 24 13 - - SE 0,0
22.04.2019 15:00:00 23,0 4,1 24 13 - - SSE 0,0
22.04.2019 14:00:00 23,0 4,7 18 10 - - SE 0,0
22.04.2019 13:00:00 22,6 5,6 22 12 - - SE 0,0
22.04.2019 12:00:00 21,3 5,2 24 13 - - SE 0,0
22.04.2019 11:00:00 19,6 3,8 26 14 - - ESE 0,0
22.04.2019 10:00:00 17,2 7,1 18 10 - - ESE 0,0
22.04.2019 09:00:00 14,5 5,8 16 9 - - E 0,0
22.04.2019 08:00:00 11,6 5,1 16 9 - - E 0,0
22.04.2019 07:00:00 9,7 4,2 16 9 - - E 0,0
22.04.2019 06:00:00 8,0 3,6 13 7 - - E 0,0
22.04.2019 05:00:00 8,9 5,1 15 8 - - E 0,0
22.04.2019 04:00:00 7,9 4,4 13 7 - - ESE 0,0
22.04.2019 03:00:00 8,3 4,9 11 6 - - E 0,0
22.04.2019 02:00:00 10,1 6,2 8 4 - - E 0,0
22.04.2019 01:00:00 10,5 6,1 8 4 - - ENE 0,0
22.04.2019 00:00:00 10,1 6,2 8 4 - - E 0,0
21.04.2019 23:00:00 11,0 6,6 5 3 - - E 0,0
21.04.2019 22:00:00 11,6 5,8 5 3 - - ENE 0,0
21.04.2019 21:00:00 16,2 6,1 5 3 - - NE 0,0
21.04.2019 20:00:00 16,8 6,5 9 5 - - NNW 0,0
21.04.2019 19:00:00 17,7 6,5 9 5 - - NNW 0,0
21.04.2019 18:00:00 19,0 6,7 13 7 - - NW 0,0
21.04.2019 17:00:00 20,0 6,3 15 8 - - WNW 0,0
21.04.2019 16:00:00 20,1 8,0 15 8 - - WNW 0,0
21.04.2019 15:00:00 20,9 7,4 9 5 - - W 0,0
21.04.2019 14:00:00 19,4 8,3 9 5 - - WSW 0,0
21.04.2019 13:00:00 18,7 7,9 9 5 - - WSW 0,0
21.04.2019 12:00:00 20,5 8,7 11 6 - - SSW 0,0
21.04.2019 11:00:00 19,9 9,0 9 5 - - S 0,0
21.04.2019 10:00:00 17,6 8,6 15 8 - - SSE 0,0
21.04.2019 09:00:00 15,0 7,1 15 8 - - SE 0,0
21.04.2019 08:00:00 12,9 7,1 13 7 - - SE 0,0
21.04.2019 07:00:00 9,8 5,7 13 7 - - ESE 0,0
21.04.2019 06:00:00 8,8 4,9 13 7 - - E 0,0
21.04.2019 05:00:00 10,0 5,4 13 7 - - ESE 0,0
21.04.2019 04:00:00 10,1 5,6 16 9 - - SE 0,0
21.04.2019 03:00:00 10,2 6,4 13 7 - - ESE 0,0
21.04.2019 02:00:00 9,6 6,5 11 6 - - ESE 0,0
21.04.2019 01:00:00 10,3 6,9 11 6 - - E 0,0
21.04.2019 00:00:00 9,7 5,9 9 5 - - E 0,0
20.04.2019 23:00:00 11,9 6,7 0 0 - - N 0,0
20.04.2019 22:00:00 11,8 6,3 8 4 - - E 0,0
20.04.2019 21:00:00 17,1 6,2 4 2 - - NNE 0,0
20.04.2019 20:00:00 17,5 8,2 8 4 - - ENE 0,0
20.04.2019 19:00:00 18,6 6,7 9 5 - - NNW 0,0
20.04.2019 18:00:00 19,0 5,8 13 7 - - NNW 0,0
20.04.2019 17:00:00 19,8 5,2 15 8 - - NW 0,0
20.04.2019 16:00:00 20,7 5,1 13 7 - - WNW 0,0
20.04.2019 15:00:00 20,4 6,6 11 6 - - W 0,0
20.04.2019 14:00:00 20,3 6,2 9 5 - - W 0,0
20.04.2019 13:00:00 21,2 7,9 9 5 - - SW 0,0
20.04.2019 12:00:00 20,6 7,2 9 5 - - SSE 0,0
20.04.2019 11:00:00 19,2 7,5 11 6 - - SE 0,0
20.04.2019 10:00:00 16,4 6,7 11 6 - - SE 0,0
20.04.2019 09:00:00 14,5 6,3 11 6 - - ESE 0,0
20.04.2019 08:00:00 11,4 5,1 11 6 - - E 0,0
20.04.2019 07:00:00 9,4 4,0 13 7 - - E 0,0
20.04.2019 06:00:00 10,2 4,2 11 6 - - E 0,0
20.04.2019 05:00:00 10,5 5,1 13 7 - - E 0,0
20.04.2019 04:00:00 10,7 5,7 13 7 - - E 0,0
20.04.2019 03:00:00 11,4 5,8 13 7 - - ESE 0,0
20.04.2019 02:00:00 11,5 5,5 13 7 - - E 0,0
20.04.2019 01:00:00 12,0 5,8 15 8 - - E 0,0
20.04.2019 00:00:00 11,3 5,7 15 8 - - E 0,0
19.04.2019 23:00:00 13,0 6,8 11 6 - - E 0,0
19.04.2019 22:00:00 15,3 6,6 11 6 - - ENE 0,0
19.04.2019 21:00:00 16,8 7,4 9 5 - - NE 0,0
19.04.2019 20:00:00 19,1 7,2 5 3 - - NNE 0,0
19.04.2019 19:00:00 19,7 9,0 4 2 - - E 0,0
19.04.2019 18:00:00 20,0 6,7 9 5 - - NNW 0,0
19.04.2019 17:00:00 20,0 6,6 9 5 - - NW 0,0
19.04.2019 16:00:00 20,3 7,4 9 5 - - W 0,0
19.04.2019 15:00:00 20,4 7,6 9 5 - - W 0,0
19.04.2019 14:00:00 20,5 8,5 9 5 - - W 0,0
19.04.2019 13:00:00 19,4 8,3 9 5 - - W 0,0

tt = temperature
td = dewpoint
ff = wind speed
fx = gusts
dd = wind direction
rr = precipitation

Next stations